createdAt,value
2018-08-21T00:00:04.971Z,18.68
2018-08-21T00:01:13.620Z,18.6
2018-08-21T00:02:22.260Z,18.7
2018-08-21T00:03:30.904Z,18.57
2018-08-21T00:04:39.554Z,18.55
2018-08-21T00:05:48.206Z,18.51
2018-08-21T00:06:56.853Z,18.52
2018-08-21T00:08:05.491Z,18.45
2018-08-21T00:09:14.143Z,18.55
2018-08-21T00:10:22.796Z,18.43
2018-08-21T00:11:31.441Z,18.45
2018-08-21T00:12:40.097Z,18.36
2018-08-21T00:13:48.742Z,18.28
2018-08-21T00:14:57.394Z,18.31
2018-08-21T00:16:06.568Z,18.34
2018-08-21T00:17:15.223Z,18.24
2018-08-21T00:18:23.874Z,18.27
2018-08-21T00:19:32.520Z,18.21
2018-08-21T00:20:41.162Z,18.13
2018-08-21T00:21:49.805Z,18.16
2018-08-21T00:22:58.455Z,18.09
2018-08-21T00:24:07.106Z,18.06
2018-08-21T00:25:15.753Z,18.11
2018-08-21T00:26:24.391Z,18.06
2018-08-21T00:27:33.042Z,18.06
2018-08-21T00:28:41.684Z,18.06
2018-08-21T00:29:50.341Z,18.09
2018-08-21T00:30:58.980Z,18.08
2018-08-21T00:32:07.632Z,18.03
2018-08-21T00:33:16.533Z,18.03
2018-08-21T00:34:25.189Z,18.06
2018-08-21T00:35:33.828Z,18.02
2018-08-21T00:36:42.477Z,17.97
2018-08-21T00:37:51.123Z,17.91
2018-08-21T00:39:00.050Z,17.98
2018-08-21T00:40:08.694Z,17.9
2018-08-21T00:41:17.340Z,17.94
2018-08-21T00:42:25.984Z,17.79
2018-08-21T00:43:34.627Z,17.88
2018-08-21T00:44:43.551Z,17.78
2018-08-21T00:45:52.451Z,17.86
2018-08-21T00:47:01.106Z,17.82
2018-08-21T00:48:09.744Z,17.8
2018-08-21T00:49:18.401Z,17.75
2018-08-21T00:50:27.044Z,17.76
2018-08-21T00:51:35.697Z,17.75
2018-08-21T00:52:44.604Z,17.73
2018-08-21T00:53:53.530Z,17.73
2018-08-21T00:55:02.173Z,17.75
2018-08-21T00:56:10.822Z,17.78
2018-08-21T00:57:19.720Z,17.75
2018-08-21T00:58:28.373Z,17.73
2018-08-21T00:59:37.021Z,17.68
2018-08-21T01:00:45.671Z,17.72
2018-08-21T01:01:54.317Z,17.72
2018-08-21T01:03:02.953Z,17.54
2018-08-21T01:04:11.871Z,17.6
2018-08-21T01:05:20.514Z,17.54
2018-08-21T01:06:29.439Z,17.56
2018-08-21T01:07:38.076Z,17.52
2018-08-21T01:08:46.723Z,17.49
2018-08-21T01:09:55.632Z,17.44
2018-08-21T01:11:04.284Z,17.47
2018-08-21T01:12:12.926Z,17.41
2018-08-21T01:13:21.577Z,17.49
2018-08-21T01:14:30.224Z,17.47
2018-08-21T01:15:38.876Z,17.49
2018-08-21T01:16:47.520Z,17.5
2018-08-21T01:17:56.169Z,17.44
2018-08-21T01:19:04.812Z,17.38
2018-08-21T01:20:13.467Z,17.41
2018-08-21T01:21:22.112Z,17.49
2018-08-21T01:22:30.757Z,17.35
2018-08-21T01:23:39.405Z,17.38
2018-08-21T01:24:48.507Z,17.39
2018-08-21T01:25:57.160Z,17.28
2018-08-21T01:27:05.808Z,17.24
2018-08-21T01:28:14.455Z,17.38
2018-08-21T01:29:23.097Z,17.3
2018-08-21T01:30:31.748Z,17.31
2018-08-21T01:31:40.391Z,17.3
2018-08-21T01:32:49.046Z,17.24
2018-08-21T01:33:57.949Z,17.19
2018-08-21T01:35:06.597Z,17.19
2018-08-21T01:36:15.242Z,17.2
2018-08-21T01:37:24.157Z,17.22
2018-08-21T01:38:32.805Z,17.2
2018-08-21T01:39:41.452Z,17.2
2018-08-21T01:40:50.359Z,17.22
2018-08-21T01:41:59.008Z,17.17
2018-08-21T01:43:07.657Z,17.17
2018-08-21T01:44:16.299Z,17.16
2018-08-21T01:45:24.946Z,17.1
2018-08-21T01:46:33.596Z,17.04
2018-08-21T01:47:42.506Z,17.05
2018-08-21T01:48:51.412Z,17.12
2018-08-21T01:50:00.326Z,17.05
2018-08-21T01:51:08.971Z,17.05
2018-08-21T01:52:17.621Z,17.05
2018-08-21T01:53:26.266Z,17.01
2018-08-21T01:54:34.919Z,17.04
2018-08-21T01:55:44.085Z,17.07
2018-08-21T01:56:52.730Z,17.04
2018-08-21T01:58:01.385Z,16.98
2018-08-21T01:59:10.309Z,16.97
2018-08-21T02:00:19.475Z,16.95
2018-08-21T02:01:28.115Z,16.94
2018-08-21T02:02:36.767Z,16.94
2018-08-21T02:03:45.674Z,16.89
2018-08-21T02:04:54.320Z,16.86
2018-08-21T02:06:03.497Z,16.83
2018-08-21T02:07:12.136Z,16.8
2018-08-21T02:08:20.787Z,16.8
2018-08-21T02:09:29.432Z,16.82
2018-08-21T02:10:38.086Z,16.83
2018-08-21T02:11:46.732Z,16.82
2018-08-21T02:12:55.377Z,16.76
2018-08-21T02:14:04.317Z,16.76
2018-08-21T02:15:12.962Z,16.72
2018-08-21T02:16:21.619Z,16.74
2018-08-21T02:17:30.261Z,16.73
2018-08-21T02:18:38.911Z,16.68
2018-08-21T02:19:47.546Z,16.64
2018-08-21T02:20:56.463Z,16.68
2018-08-21T02:22:05.375Z,16.73
2018-08-21T02:23:14.028Z,16.69
2018-08-21T02:24:22.668Z,16.57
2018-08-21T02:25:31.314Z,16.59
2018-08-21T02:26:39.956Z,16.58
2018-08-21T02:27:48.605Z,16.58
2018-08-21T02:28:57.501Z,16.55
2018-08-21T02:30:06.420Z,16.51
2018-08-21T02:31:15.337Z,16.5
2018-08-21T02:32:23.989Z,16.47
2018-08-21T02:33:33.170Z,16.44
2018-08-21T02:34:41.809Z,16.41
2018-08-21T02:35:50.460Z,16.46
2018-08-21T02:36:59.107Z,16.37
2018-08-21T02:38:08.303Z,16.4
2018-08-21T02:39:16.941Z,16.4
2018-08-21T02:40:25.592Z,16.44
2018-08-21T02:41:34.236Z,16.47
2018-08-21T02:42:42.893Z,16.39
2018-08-21T02:43:51.529Z,16.41
2018-08-21T02:45:00.177Z,16.32
2018-08-21T02:46:08.821Z,16.36
2018-08-21T02:47:17.478Z,16.32
2018-08-21T02:48:26.123Z,16.39
2018-08-21T02:49:34.767Z,16.31
2018-08-21T02:50:43.410Z,16.32
2018-08-21T02:51:52.054Z,16.29
2018-08-21T02:53:00.718Z,16.31
2018-08-21T02:54:09.625Z,16.28
2018-08-21T02:55:18.803Z,16.25
2018-08-21T02:56:27.436Z,16.28
2018-08-21T02:57:36.091Z,16.25
2018-08-21T02:58:44.736Z,16.22
2018-08-21T02:59:53.388Z,16.34
2018-08-21T03:01:02.023Z,16.26
2018-08-21T03:02:10.943Z,16.26
2018-08-21T03:03:19.586Z,16.32
2018-08-21T03:04:28.495Z,16.26
2018-08-21T03:05:37.138Z,16.31
2018-08-21T03:06:45.785Z,16.24
2018-08-21T03:07:54.432Z,16.25
2018-08-21T03:09:03.347Z,16.31
2018-08-21T03:10:12.000Z,16.25
2018-08-21T03:11:20.643Z,16.28
2018-08-21T03:12:29.293Z,16.26
2018-08-21T03:13:38.206Z,16.25
2018-08-21T03:14:46.862Z,16.26
2018-08-21T03:15:55.508Z,16.26
2018-08-21T03:17:04.153Z,16.25
2018-08-21T03:18:12.803Z,16.18
2018-08-21T03:19:21.995Z,16.17
2018-08-21T03:20:30.920Z,16.16
2018-08-21T03:21:39.674Z,16.18
2018-08-21T03:22:48.566Z,16.17
2018-08-21T03:23:57.217Z,16.21
2018-08-21T03:25:06.393Z,16.16
2018-08-21T03:26:15.304Z,16.16
2018-08-21T03:27:23.947Z,16.08
2018-08-21T03:28:32.589Z,16.03
2018-08-21T03:29:41.240Z,16.06
2018-08-21T03:30:50.157Z,16.06
2018-08-21T03:31:59.069Z,16
2018-08-21T03:33:07.712Z,15.96
2018-08-21T03:34:16.363Z,15.92
2018-08-21T03:35:25.010Z,15.99
2018-08-21T03:36:33.655Z,15.91
2018-08-21T03:37:42.296Z,15.92
2018-08-21T03:38:50.953Z,15.88
2018-08-21T03:39:59.863Z,15.91
2018-08-21T03:41:08.513Z,15.85
2018-08-21T03:42:17.152Z,15.84
2018-08-21T03:43:26.063Z,15.88
2018-08-21T03:44:34.711Z,15.87
2018-08-21T03:45:43.620Z,15.87
2018-08-21T03:46:52.267Z,15.85
2018-08-21T03:48:00.910Z,15.78
2018-08-21T03:49:09.558Z,15.85
2018-08-21T03:50:18.203Z,15.85
2018-08-21T03:51:26.860Z,15.73
2018-08-21T03:52:35.499Z,15.81
2018-08-21T03:53:44.144Z,15.73
2018-08-21T03:54:52.787Z,15.75
2018-08-21T03:56:02.235Z,15.75
2018-08-21T03:57:10.876Z,15.7
2018-08-21T03:58:19.787Z,15.75
2018-08-21T03:59:28.438Z,15.66
2018-08-21T04:00:37.080Z,15.62
2018-08-21T04:01:45.991Z,15.69
2018-08-21T04:02:54.634Z,15.67
2018-08-21T04:04:03.280Z,15.65
2018-08-21T04:05:12.417Z,15.57
2018-08-21T04:06:21.426Z,15.6
2018-08-21T04:07:30.079Z,15.62
2018-08-21T04:08:38.725Z,15.51
2018-08-21T04:09:47.373Z,15.62
2018-08-21T04:10:56.014Z,15.51
2018-08-21T04:12:04.659Z,15.62
2018-08-21T04:13:13.311Z,15.54
2018-08-21T04:14:21.960Z,15.5
2018-08-21T04:15:30.599Z,15.52
2018-08-21T04:16:39.252Z,15.48
2018-08-21T04:17:47.895Z,15.51
2018-08-21T04:18:56.812Z,15.6
2018-08-21T04:20:05.458Z,15.51
2018-08-21T04:21:14.101Z,15.47
2018-08-21T04:22:22.753Z,15.57
2018-08-21T04:23:31.396Z,15.5
2018-08-21T04:24:40.091Z,15.55
2018-08-21T04:25:48.702Z,15.6
2018-08-21T04:26:57.352Z,15.62
2018-08-21T04:28:05.988Z,15.66
2018-08-21T04:29:14.642Z,15.65
2018-08-21T04:30:23.283Z,15.7
2018-08-21T04:31:31.929Z,15.62
2018-08-21T04:32:40.669Z,15.7
2018-08-21T04:33:49.747Z,15.63
2018-08-21T04:34:58.391Z,15.72
2018-08-21T04:36:07.298Z,15.7
2018-08-21T04:37:15.939Z,15.65
2018-08-21T04:38:24.587Z,15.67
2018-08-21T04:39:33.234Z,15.66
2018-08-21T04:40:41.882Z,15.67
2018-08-21T04:41:50.534Z,15.72
2018-08-21T04:42:59.175Z,15.63
2018-08-21T04:44:07.820Z,15.67
2018-08-21T04:45:16.467Z,15.63
2018-08-21T04:46:25.192Z,15.65
2018-08-21T04:47:33.759Z,15.63
2018-08-21T04:48:42.408Z,15.66
2018-08-21T04:49:51.318Z,15.65
2018-08-21T04:50:59.966Z,15.7
2018-08-21T04:52:08.607Z,15.6
2018-08-21T04:53:17.257Z,15.67
2018-08-21T04:54:25.901Z,15.66
2018-08-21T04:55:34.554Z,15.75
2018-08-21T04:56:43.197Z,15.7
2018-08-21T04:57:51.848Z,15.72
2018-08-21T04:59:00.526Z,15.6
2018-08-21T05:00:09.811Z,15.65
2018-08-21T05:01:18.460Z,15.69
2018-08-21T05:02:27.104Z,15.78
2018-08-21T05:03:35.754Z,15.72
2018-08-21T05:04:44.395Z,15.69
2018-08-21T05:05:53.313Z,15.7
2018-08-21T05:07:01.953Z,15.66
2018-08-21T05:08:10.864Z,15.69
2018-08-21T05:09:19.504Z,15.73
2018-08-21T05:10:28.161Z,15.73
2018-08-21T05:11:37.067Z,15.73
2018-08-21T05:12:46.148Z,15.76
2018-08-21T05:13:54.729Z,15.76
2018-08-21T05:15:03.376Z,15.73
2018-08-21T05:16:12.028Z,15.8
2018-08-21T05:17:20.677Z,15.81
2018-08-21T05:18:29.328Z,15.84
2018-08-21T05:19:37.964Z,15.88
2018-08-21T05:20:46.877Z,15.88
2018-08-21T05:21:55.518Z,15.85
2018-08-21T05:23:04.173Z,15.91
2018-08-21T05:24:12.808Z,15.88
2018-08-21T05:25:21.459Z,15.94
2018-08-21T05:26:30.100Z,15.94
2018-08-21T05:27:38.759Z,15.96
2018-08-21T05:28:47.397Z,16.09
2018-08-21T05:29:56.046Z,16.1
2018-08-21T05:31:04.695Z,16.06
2018-08-21T05:32:13.873Z,16.12
2018-08-21T05:33:22.515Z,16.13
2018-08-21T05:34:31.154Z,16.18
2018-08-21T05:35:39.804Z,16.21
2018-08-21T05:36:48.444Z,16.18
2018-08-21T05:37:57.101Z,16.24
2018-08-21T05:39:05.737Z,16.21
2018-08-21T05:40:14.663Z,16.22
2018-08-21T05:41:23.302Z,16.25
2018-08-21T05:42:31.957Z,16.32
2018-08-21T05:43:41.026Z,16.29
2018-08-21T05:44:49.646Z,16.44
2018-08-21T05:45:58.283Z,16.41
2018-08-21T05:47:06.941Z,16.47
2018-08-21T05:48:15.848Z,16.5
2018-08-21T05:49:24.765Z,16.57
2018-08-21T05:50:33.672Z,16.59
2018-08-21T05:51:42.326Z,16.54
2018-08-21T05:52:50.980Z,16.64
2018-08-21T05:53:59.630Z,16.66
2018-08-21T05:55:08.705Z,16.65
2018-08-21T05:56:17.263Z,16.65
2018-08-21T05:57:25.915Z,16.65
2018-08-21T05:58:34.557Z,16.73
2018-08-21T05:59:43.214Z,16.66
2018-08-21T06:00:51.848Z,16.83
2018-08-21T06:02:00.493Z,16.83
2018-08-21T06:03:09.142Z,16.86
2018-08-21T06:04:17.789Z,16.97
2018-08-21T06:05:26.431Z,16.99
2018-08-21T06:06:35.085Z,16.92
2018-08-21T06:07:43.998Z,17.07
2018-08-21T06:08:52.927Z,17.04
2018-08-21T06:10:01.844Z,17.19
2018-08-21T06:11:10.495Z,17.24
2018-08-21T06:12:19.143Z,17.24
2018-08-21T06:13:28.053Z,17.23
2018-08-21T06:14:36.702Z,17.35
2018-08-21T06:15:45.357Z,17.35
2018-08-21T06:16:54.006Z,17.31
2018-08-21T06:18:03.092Z,17.38
2018-08-21T06:19:12.009Z,17.52
2018-08-21T06:20:21.093Z,17.57
2018-08-21T06:21:29.974Z,17.69
2018-08-21T06:22:38.737Z,17.73
2018-08-21T06:23:47.449Z,17.84
2018-08-21T06:24:56.199Z,17.9
2018-08-21T06:26:04.741Z,18
2018-08-21T06:27:13.646Z,18.11
2018-08-21T06:28:22.568Z,18.08
2018-08-21T06:29:31.490Z,18.19
2018-08-21T06:30:40.664Z,18.21
2018-08-21T06:31:49.636Z,18.36
2018-08-21T06:32:58.222Z,18.43
2018-08-21T06:34:06.865Z,18.6
2018-08-21T06:35:15.806Z,18.6
2018-08-21T06:36:24.458Z,18.76
2018-08-21T06:37:33.099Z,18.86
2018-08-21T06:38:41.745Z,18.89
2018-08-21T06:39:50.464Z,19.05
2018-08-21T06:40:59.558Z,19.16
2018-08-21T06:42:08.200Z,19.24
2018-08-21T06:43:16.848Z,19.41
2018-08-21T06:44:25.492Z,19.48
2018-08-21T06:45:34.156Z,19.59
2018-08-21T06:46:42.802Z,19.74
2018-08-21T06:47:51.456Z,19.87
2018-08-21T06:49:00.097Z,19.92
2018-08-21T06:50:08.742Z,20.02
2018-08-21T06:51:17.396Z,20.08
2018-08-21T06:52:26.047Z,20.19
2018-08-21T06:53:34.696Z,20.29
2018-08-21T06:54:43.338Z,20.42
2018-08-21T06:55:51.990Z,20.59
2018-08-21T06:57:00.638Z,20.63
2018-08-21T06:58:09.293Z,20.78
2018-08-21T06:59:18.200Z,20.89
2018-08-21T07:00:26.858Z,20.98
2018-08-21T07:01:35.766Z,21.14
2018-08-21T07:02:44.421Z,21.25
2018-08-21T07:03:53.069Z,21.26
2018-08-21T07:05:01.721Z,21.44
2018-08-21T07:06:10.377Z,21.47
2018-08-21T07:07:19.032Z,21.53
2018-08-21T07:08:27.686Z,21.58
2018-08-21T07:09:36.324Z,21.65
2018-08-21T07:10:44.976Z,21.69
2018-08-21T07:11:53.887Z,21.75
2018-08-21T07:13:02.547Z,21.84
2018-08-21T07:14:11.186Z,21.89
2018-08-21T07:15:19.839Z,21.84
2018-08-21T07:16:28.483Z,21.85
2018-08-21T07:17:37.141Z,21.91
2018-08-21T07:18:45.779Z,21.84
2018-08-21T07:19:54.428Z,21.99
2018-08-21T07:21:03.075Z,21.99
2018-08-21T07:22:11.768Z,21.91
2018-08-21T07:23:20.387Z,21.96
2018-08-21T07:24:29.034Z,22.01
2018-08-21T07:25:37.680Z,22.1
2018-08-21T07:26:46.590Z,22.1
2018-08-21T07:27:55.249Z,22.15
2018-08-21T07:29:04.192Z,22.19
2018-08-21T07:30:12.807Z,22.16
2018-08-21T07:31:21.447Z,22.28
2018-08-21T07:32:30.107Z,22.37
2018-08-21T07:33:38.757Z,22.38
2018-08-21T07:34:47.413Z,22.47
2018-08-21T07:35:56.053Z,22.49
2018-08-21T07:37:04.976Z,22.61
2018-08-21T07:38:13.625Z,22.68
2018-08-21T07:39:22.544Z,22.73
2018-08-21T07:40:31.448Z,22.68
2018-08-21T07:41:40.101Z,22.7
2018-08-21T07:42:48.754Z,22.71
2018-08-21T07:43:57.407Z,22.71
2018-08-21T07:45:06.058Z,22.7
2018-08-21T07:46:14.706Z,22.76
2018-08-21T07:47:23.358Z,22.77
2018-08-21T07:48:32.012Z,22.81
2018-08-21T07:49:40.660Z,22.86
2018-08-21T07:50:49.301Z,22.89
2018-08-21T07:51:57.954Z,22.91
2018-08-21T07:53:06.599Z,22.95
2018-08-21T07:54:15.262Z,22.95
2018-08-21T07:55:23.904Z,22.95
2018-08-21T07:56:32.563Z,22.98
2018-08-21T07:57:41.217Z,23.07
2018-08-21T07:58:49.858Z,22.99
2018-08-21T07:59:58.512Z,23.04
2018-08-21T08:01:07.167Z,23.06
2018-08-21T08:02:16.082Z,23.06
2018-08-21T08:03:24.735Z,23.04
2018-08-21T08:04:33.376Z,23.14
2018-08-21T08:05:42.299Z,23.08
2018-08-21T08:06:50.944Z,23.08
2018-08-21T08:07:59.878Z,23.11
2018-08-21T08:09:09.042Z,23.16
2018-08-21T08:10:17.697Z,23.29
2018-08-21T08:11:26.344Z,23.26
2018-08-21T08:12:35.264Z,23.29
2018-08-21T08:13:43.980Z,23.26
2018-08-21T08:14:52.559Z,23.2
2018-08-21T08:16:01.210Z,23.18
2018-08-21T08:17:09.867Z,23.29
2018-08-21T08:18:18.517Z,23.28
2018-08-21T08:19:27.163Z,23.33
2018-08-21T08:20:35.814Z,23.45
2018-08-21T08:21:44.462Z,23.51
2018-08-21T08:22:53.170Z,23.52
2018-08-21T08:24:01.772Z,23.52
2018-08-21T08:25:10.433Z,23.62
2018-08-21T08:26:19.075Z,23.66
2018-08-21T08:27:27.736Z,23.67
2018-08-21T08:28:36.385Z,23.74
2018-08-21T08:29:45.041Z,23.84
2018-08-21T08:30:53.683Z,23.91
2018-08-21T08:32:02.344Z,23.88
2018-08-21T08:33:10.995Z,23.96
2018-08-21T08:34:19.648Z,24.03
2018-08-21T08:35:28.290Z,23.95
2018-08-21T08:36:36.943Z,23.89
2018-08-21T08:37:45.599Z,23.81
2018-08-21T08:38:54.251Z,23.73
2018-08-21T08:40:02.905Z,23.74
2018-08-21T08:41:11.555Z,23.81
2018-08-21T08:42:20.470Z,23.86
2018-08-21T08:43:29.123Z,23.84
2018-08-21T08:44:37.788Z,23.86
2018-08-21T08:45:46.694Z,23.84
2018-08-21T08:46:55.354Z,23.74
2018-08-21T08:48:04.000Z,23.77
2018-08-21T08:49:22.033Z,23.86
2018-08-21T08:51:01.263Z,24.03
2018-08-21T08:52:09.936Z,24.01
2018-08-21T08:53:29.186Z,24.04
2018-08-21T08:54:38.696Z,23.99
2018-08-21T08:55:47.607Z,23.92
2018-08-21T08:56:56.258Z,23.94
2018-08-21T08:58:04.908Z,23.89
2018-08-21T08:59:13.588Z,23.91
2018-08-21T09:00:22.221Z,23.91
2018-08-21T09:01:32.832Z,23.86
2018-08-21T09:02:44.745Z,23.94
2018-08-21T09:03:56.476Z,24.01
2018-08-21T09:05:08.963Z,24.13
2018-08-21T09:06:19.548Z,24.22
2018-08-21T09:07:31.592Z,24.44
2018-08-21T09:08:43.087Z,24.36
2018-08-21T09:09:54.921Z,24.47
2018-08-21T09:11:05.744Z,24.51
2018-08-21T09:12:17.924Z,24.58
2018-08-21T09:13:28.280Z,24.65
2018-08-21T09:14:39.393Z,24.63
2018-08-21T09:15:52.353Z,24.68
2018-08-21T09:17:04.064Z,24.75
2018-08-21T09:18:17.074Z,24.88
2018-08-21T09:19:29.701Z,24.82
2018-08-21T09:20:42.200Z,24.88
2018-08-21T09:21:55.290Z,24.92
2018-08-21T09:23:08.370Z,24.88
2018-08-21T09:24:20.224Z,24.96
2018-08-21T09:25:31.482Z,24.88
2018-08-21T09:26:44.097Z,24.94
2018-08-21T09:27:56.667Z,25.03
2018-08-21T09:29:07.403Z,25.04
2018-08-21T09:30:20.023Z,25.09
2018-08-21T09:31:33.913Z,25.07
2018-08-21T09:32:46.347Z,25.06
2018-08-21T09:33:59.071Z,25.04
2018-08-21T09:35:11.779Z,24.97
2018-08-21T09:36:24.375Z,24.99
2018-08-21T09:37:37.557Z,25.01
2018-08-21T09:38:48.892Z,25.06
2018-08-21T09:40:00.842Z,25.22
2018-08-21T09:41:11.827Z,25.09
2018-08-21T09:42:23.226Z,25.15
2018-08-21T09:43:34.359Z,25.07
2018-08-21T09:44:45.218Z,25.06
2018-08-21T09:45:57.759Z,25.01
2018-08-21T09:47:07.599Z,25.03
2018-08-21T09:48:16.257Z,25.09
2018-08-21T09:49:24.907Z,25.11
2018-08-21T09:50:34.236Z,25.16
2018-08-21T09:51:43.027Z,25.04
2018-08-21T09:52:51.639Z,25.01
2018-08-21T09:54:00.296Z,24.96
2018-08-21T09:55:09.226Z,24.93
2018-08-21T09:56:17.878Z,24.77
2018-08-21T09:57:26.526Z,24.74
2018-08-21T09:58:35.180Z,24.77
2018-08-21T09:59:43.834Z,24.79
2018-08-21T10:00:52.492Z,24.79
2018-08-21T10:02:01.189Z,24.82
2018-08-21T10:03:10.125Z,24.88
2018-08-21T10:04:18.778Z,24.94
2018-08-21T10:05:27.454Z,25.11
2018-08-21T10:06:36.130Z,25.07
2018-08-21T10:07:44.757Z,25.14
2018-08-21T10:08:53.675Z,25.12
2018-08-21T10:10:02.335Z,25.12
2018-08-21T10:11:10.984Z,25.14
2018-08-21T10:12:19.900Z,25.26
2018-08-21T10:13:28.568Z,25.26
2018-08-21T10:14:37.317Z,25.3
2018-08-21T10:15:46.230Z,25.3
2018-08-21T10:16:55.088Z,25.26
2018-08-21T10:18:03.752Z,25.34
2018-08-21T10:19:12.668Z,25.31
2018-08-21T10:20:21.590Z,25.3
2018-08-21T10:21:30.244Z,25.31
2018-08-21T10:22:38.896Z,25.22
2018-08-21T10:23:47.546Z,25.31
2018-08-21T10:24:56.211Z,25.3
2018-08-21T10:26:05.129Z,25.25
2018-08-21T10:27:14.048Z,25.15
2018-08-21T10:28:22.976Z,25.16
2018-08-21T10:29:32.285Z,25.18
2018-08-21T10:30:40.935Z,25.24
2018-08-21T10:31:49.851Z,25.21
2018-08-21T10:32:58.848Z,25.29
2018-08-21T10:34:07.494Z,25.33
2018-08-21T10:35:16.146Z,25.46
2018-08-21T10:36:24.799Z,25.48
2018-08-21T10:37:33.460Z,25.67
2018-08-21T10:38:42.105Z,25.61
2018-08-21T10:39:50.761Z,25.67
2018-08-21T10:40:59.680Z,25.67
2018-08-21T10:42:08.608Z,25.71
2018-08-21T10:43:17.257Z,25.63
2018-08-21T10:44:26.175Z,25.67
2018-08-21T10:45:35.005Z,25.67
2018-08-21T10:46:43.661Z,25.66
2018-08-21T10:47:52.312Z,25.73
2018-08-21T10:49:01.230Z,25.66
2018-08-21T10:50:10.142Z,25.68
2018-08-21T10:51:18.793Z,25.68
2018-08-21T10:52:27.448Z,25.83
2018-08-21T10:53:36.366Z,25.8
2018-08-21T10:54:45.069Z,25.89
2018-08-21T10:55:53.983Z,25.98
2018-08-21T10:57:02.648Z,25.93
2018-08-21T10:58:11.298Z,25.96
2018-08-21T10:59:20.221Z,25.96
2018-08-21T11:00:28.881Z,25.98
2018-08-21T11:01:37.545Z,26.16
2018-08-21T11:02:46.191Z,26.22
2018-08-21T11:03:54.850Z,26.26
2018-08-21T11:05:04.030Z,26.39
2018-08-21T11:06:13.217Z,26.44
2018-08-21T11:07:22.135Z,26.42
2018-08-21T11:08:30.789Z,26.56
2018-08-21T11:09:39.445Z,26.56
2018-08-21T11:10:48.091Z,26.56
2018-08-21T11:11:56.748Z,26.63
2018-08-21T11:13:05.399Z,26.6
2018-08-21T11:14:14.330Z,26.59
2018-08-21T11:15:23.248Z,26.63
2018-08-21T11:16:31.905Z,26.6
2018-08-21T11:17:40.559Z,26.6
2018-08-21T11:18:49.222Z,26.59
2018-08-21T11:19:57.866Z,26.55
2018-08-21T11:21:06.602Z,26.55
2018-08-21T11:22:15.171Z,26.59
2018-08-21T11:23:23.831Z,26.56
2018-08-21T11:24:32.605Z,26.61
2018-08-21T11:25:41.255Z,26.56
2018-08-21T11:26:49.907Z,26.52
2018-08-21T11:27:58.561Z,26.59
2018-08-21T11:29:07.491Z,26.39
2018-08-21T11:30:16.402Z,26.42
2018-08-21T11:31:25.062Z,26.39
2018-08-21T11:32:33.705Z,26.44
2018-08-21T11:33:42.371Z,26.48
2018-08-21T11:34:51.015Z,26.53
2018-08-21T11:35:59.672Z,26.44
2018-08-21T11:37:08.316Z,26.52
2018-08-21T11:38:16.982Z,26.49
2018-08-21T11:39:25.629Z,26.61
2018-08-21T11:40:34.290Z,26.44
2018-08-21T11:41:42.932Z,26.39
2018-08-21T11:42:51.587Z,26.31
2018-08-21T11:44:00.251Z,26.19
2018-08-21T11:45:08.909Z,26.18
2018-08-21T11:46:17.564Z,26.03
2018-08-21T11:47:26.212Z,26.08
2018-08-21T11:48:34.871Z,25.96
2018-08-21T11:49:43.522Z,25.93
2018-08-21T11:50:52.182Z,25.83
2018-08-21T11:52:00.826Z,25.8
2018-08-21T11:53:09.476Z,25.76
2018-08-21T11:54:18.394Z,25.73
2018-08-21T11:55:27.040Z,25.73
2018-08-21T11:56:35.972Z,25.78
2018-08-21T11:57:44.621Z,25.78
2018-08-21T11:58:53.279Z,25.88
2018-08-21T12:00:01.923Z,25.78
2018-08-21T12:01:10.577Z,25.71
2018-08-21T12:02:19.246Z,25.78
2018-08-21T12:03:28.018Z,25.86
2018-08-21T12:04:36.919Z,25.83
2018-08-21T12:05:45.563Z,25.98
2018-08-21T12:06:54.498Z,25.95
2018-08-21T12:08:03.148Z,26.1
2018-08-21T12:09:11.818Z,26.23
2018-08-21T12:10:20.992Z,26.29
2018-08-21T12:11:29.653Z,26.44
2018-08-21T12:12:38.566Z,26.55
2018-08-21T12:13:47.490Z,26.71
2018-08-21T12:14:56.137Z,26.71
2018-08-21T12:16:05.070Z,26.85
2018-08-21T12:17:13.711Z,26.97
2018-08-21T12:18:22.371Z,27
2018-08-21T12:19:31.026Z,27.16
2018-08-21T12:20:39.673Z,27.22
2018-08-21T12:21:48.324Z,27.28
2018-08-21T12:22:57.236Z,27.41
2018-08-21T12:24:05.898Z,27.38
2018-08-21T12:25:14.547Z,27.47
2018-08-21T12:26:23.474Z,27.61
2018-08-21T12:27:32.115Z,27.63
2018-08-21T12:28:40.780Z,27.66
2018-08-21T12:29:49.458Z,27.68
2018-08-21T12:30:58.089Z,27.73
2018-08-21T12:32:06.732Z,27.83
2018-08-21T12:33:15.396Z,27.97
2018-08-21T12:34:24.047Z,27.95
2018-08-21T12:35:32.701Z,28
2018-08-21T12:36:41.353Z,28.04
2018-08-21T12:37:50.007Z,28.1
2018-08-21T12:38:58.668Z,28.13
2018-08-21T12:40:07.328Z,28.06
2018-08-21T12:41:16.266Z,27.93
2018-08-21T12:42:24.911Z,27.9
2018-08-21T12:43:33.569Z,27.98
2018-08-21T12:44:42.221Z,27.86
2018-08-21T12:45:50.883Z,27.76
2018-08-21T12:46:59.793Z,27.64
2018-08-21T12:48:08.451Z,27.63
2018-08-21T12:49:17.102Z,27.61
2018-08-21T12:50:25.800Z,27.63
2018-08-21T12:51:34.774Z,27.61
2018-08-21T12:52:43.434Z,27.67
2018-08-21T12:53:52.088Z,27.66
2018-08-21T12:55:00.755Z,27.57
2018-08-21T12:56:09.714Z,27.48
2018-08-21T12:57:18.373Z,27.44
2018-08-21T12:58:27.025Z,27.38
2018-08-21T12:59:35.678Z,27.26
2018-08-21T13:00:44.336Z,27.11
2018-08-21T13:01:52.989Z,27.1
2018-08-21T13:03:01.649Z,26.92
2018-08-21T13:04:10.563Z,26.91
2018-08-21T13:05:19.224Z,26.85
2018-08-21T13:06:28.145Z,26.78
2018-08-21T13:07:36.800Z,26.73
2018-08-21T13:08:45.446Z,26.68
2018-08-21T13:09:54.104Z,26.74
2018-08-21T13:11:02.755Z,26.74
2018-08-21T13:12:11.672Z,26.76
2018-08-21T13:13:20.588Z,26.78
2018-08-21T13:14:29.247Z,26.85
2018-08-21T13:15:37.899Z,26.79
2018-08-21T13:16:46.554Z,26.86
2018-08-21T13:17:55.210Z,26.82
2018-08-21T13:19:03.863Z,26.83
2018-08-21T13:20:12.779Z,26.93
2018-08-21T13:21:21.435Z,27
2018-08-21T13:22:30.091Z,27.16
2018-08-21T13:23:38.739Z,27.22
2018-08-21T13:24:47.468Z,27.28
2018-08-21T13:25:56.048Z,27.33
2018-08-21T13:27:04.705Z,27.35
2018-08-21T13:28:13.626Z,27.38
2018-08-21T13:29:22.293Z,27.34
2018-08-21T13:30:30.942Z,27.2
2018-08-21T13:31:39.602Z,27.25
2018-08-21T13:32:48.252Z,27.05
2018-08-21T13:33:56.904Z,26.97
2018-08-21T13:35:05.564Z,26.96
2018-08-21T13:36:14.289Z,26.97
2018-08-21T13:37:23.169Z,26.93
2018-08-21T13:38:31.825Z,26.98
2018-08-21T13:39:40.742Z,27
2018-08-21T13:40:49.391Z,26.91
2018-08-21T13:41:58.052Z,26.88
2018-08-21T13:43:06.706Z,26.96
2018-08-21T13:44:15.699Z,26.96
2018-08-21T13:45:24.675Z,27
2018-08-21T13:46:33.602Z,27.05
2018-08-21T13:47:42.252Z,27.07
2018-08-21T13:48:51.173Z,27.18
2018-08-21T13:49:59.824Z,27.19
2018-08-21T13:51:08.490Z,27.04
2018-08-21T13:52:17.144Z,27.13
2018-08-21T13:53:25.802Z,27.18
2018-08-21T13:54:34.722Z,27.07
2018-08-21T13:55:43.366Z,27.1
2018-08-21T13:56:52.061Z,27
2018-08-21T13:58:01.198Z,27.05
2018-08-21T13:59:09.861Z,27.01
2018-08-21T14:00:18.509Z,26.85
2018-08-21T14:01:27.169Z,26.86
2018-08-21T14:02:35.818Z,26.81
2018-08-21T14:03:44.480Z,26.89
2018-08-21T14:04:53.130Z,26.74
2018-08-21T14:06:02.057Z,26.83
2018-08-21T14:07:10.705Z,26.81
2018-08-21T14:08:19.632Z,26.85
2018-08-21T14:09:28.282Z,26.86
2018-08-21T14:10:36.934Z,26.81
2018-08-21T14:11:45.850Z,26.82
2018-08-21T14:12:54.518Z,26.81
2018-08-21T14:14:03.172Z,26.85
2018-08-21T14:15:11.821Z,26.81
2018-08-21T14:16:20.479Z,26.83
2018-08-21T14:17:29.122Z,26.93
2018-08-21T14:18:37.786Z,26.97
2018-08-21T14:19:46.437Z,27.07
2018-08-21T14:20:55.357Z,27.1
2018-08-21T14:22:04.273Z,27.1
2018-08-21T14:23:12.931Z,27.08
2018-08-21T14:24:21.583Z,27.07
2018-08-21T14:25:30.238Z,27.04
2018-08-21T14:26:39.144Z,27.16
2018-08-21T14:27:48.137Z,27.13
2018-08-21T14:28:56.731Z,27.1
2018-08-21T14:30:05.386Z,27
2018-08-21T14:31:14.048Z,26.96
2018-08-21T14:32:22.689Z,27
2018-08-21T14:33:31.345Z,27.07
2018-08-21T14:34:40.258Z,27.23
2018-08-21T14:35:48.920Z,27.18
2018-08-21T14:36:57.829Z,27.2
2018-08-21T14:38:06.487Z,27.35
2018-08-21T14:39:15.400Z,27.41
2018-08-21T14:40:24.063Z,27.33
2018-08-21T14:41:32.706Z,27.23
2018-08-21T14:42:41.367Z,27.22
2018-08-21T14:43:50.018Z,27.23
2018-08-21T14:44:58.678Z,27.2
2018-08-21T14:46:07.989Z,27.18
2018-08-21T14:47:16.570Z,27.19
2018-08-21T14:48:25.222Z,27.2
2018-08-21T14:49:33.875Z,27.01
2018-08-21T14:50:42.590Z,27